sensor_id;sensor_type;location;lat;lon;timestamp;P1;durP1;ratioP1;P2;durP2;ratioP2
41261;SDS011;29629;52.532;13.352;2022-12-08T00:01:32;91.88;;;53.28;;
41261;SDS011;29629;52.532;13.352;2022-12-08T00:04:00;98.90;;;58.42;;
41261;SDS011;29629;52.532;13.352;2022-12-08T00:06:28;90.75;;;53.30;;
41261;SDS011;29629;52.532;13.352;2022-12-08T00:11:54;87.82;;;51.90;;
41261;SDS011;29629;52.532;13.352;2022-12-08T00:14:25;89.68;;;52.08;;
41261;SDS011;29629;52.532;13.352;2022-12-08T00:16:53;87.20;;;51.72;;
41261;SDS011;29629;52.532;13.352;2022-12-08T00:19:21;85.32;;;51.42;;
41261;SDS011;29629;52.532;13.352;2022-12-08T00:21:49;85.13;;;50.38;;
41261;SDS011;29629;52.532;13.352;2022-12-08T00:24:17;81.35;;;48.88;;
41261;SDS011;29629;52.532;13.352;2022-12-08T00:26:44;88.97;;;50.33;;
41261;SDS011;29629;52.532;13.352;2022-12-08T00:29:11;86.03;;;49.72;;
41261;SDS011;29629;52.532;13.352;2022-12-08T00:31:40;84.50;;;51.33;;
41261;SDS011;29629;52.532;13.352;2022-12-08T00:34:07;85.25;;;50.92;;
41261;SDS011;29629;52.532;13.352;2022-12-08T00:36:33;77.95;;;48.10;;
41261;SDS011;29629;52.532;13.352;2022-12-08T00:39:00;83.82;;;50.33;;
41261;SDS011;29629;52.532;13.352;2022-12-08T00:41:27;77.03;;;48.30;;
41261;SDS011;29629;52.532;13.352;2022-12-08T00:44:14;84.00;;;50.38;;
41261;SDS011;29629;52.532;13.352;2022-12-08T00:46:44;78.55;;;47.92;;
41261;SDS011;29629;52.532;13.352;2022-12-08T00:49:11;86.18;;;53.30;;
41261;SDS011;29629;52.532;13.352;2022-12-08T00:51:39;92.35;;;52.72;;
41261;SDS011;29629;52.532;13.352;2022-12-08T00:54:06;89.00;;;53.05;;
41261;SDS011;29629;52.532;13.352;2022-12-08T00:56:34;87.07;;;51.22;;
41261;SDS011;29629;52.532;13.352;2022-12-08T00:59:02;75.65;;;48.38;;
41261;SDS011;29629;52.532;13.352;2022-12-08T01:01:29;71.55;;;46.10;;
41261;SDS011;29629;52.532;13.352;2022-12-08T01:03:59;80.82;;;48.30;;
41261;SDS011;29629;52.532;13.352;2022-12-08T01:06:28;81.45;;;49.35;;
41261;SDS011;29629;52.532;13.352;2022-12-08T01:08:55;77.45;;;48.65;;
41261;SDS011;29629;52.532;13.352;2022-12-08T01:11:22;74.68;;;47.85;;
41261;SDS011;29629;52.532;13.352;2022-12-08T01:13:49;83.03;;;50.25;;
41261;SDS011;29629;52.532;13.352;2022-12-08T01:16:19;87.78;;;52.83;;
41261;SDS011;29629;52.532;13.352;2022-12-08T01:18:46;88.05;;;53.75;;
41261;SDS011;29629;52.532;13.352;2022-12-08T01:21:15;93.78;;;56.38;;
41261;SDS011;29629;52.532;13.352;2022-12-08T01:23:43;91.65;;;54.53;;
41261;SDS011;29629;52.532;13.352;2022-12-08T01:26:11;93.88;;;55.05;;
41261;SDS011;29629;52.532;13.352;2022-12-08T01:28:40;87.43;;;52.33;;
41261;SDS011;29629;52.532;13.352;2022-12-08T01:31:09;94.00;;;55.08;;
41261;SDS011;29629;52.532;13.352;2022-12-08T01:33:38;91.30;;;53.60;;
41261;SDS011;29629;52.532;13.352;2022-12-08T01:36:06;86.78;;;52.30;;
41261;SDS011;29629;52.532;13.352;2022-12-08T01:38:35;87.05;;;52.40;;
41261;SDS011;29629;52.532;13.352;2022-12-08T01:41:02;82.03;;;51.00;;
41261;SDS011;29629;52.532;13.352;2022-12-08T01:46:22;87.05;;;51.08;;
41261;SDS011;29629;52.532;13.352;2022-12-08T01:48:49;83.50;;;50.17;;
41261;SDS011;29629;52.532;13.352;2022-12-08T01:51:19;80.68;;;49.70;;
41261;SDS011;29629;52.532;13.352;2022-12-08T01:53:47;79.22;;;48.20;;
41261;SDS011;29629;52.532;13.352;2022-12-08T01:56:17;80.50;;;48.97;;
41261;SDS011;29629;52.532;13.352;2022-12-08T01:58:52;76.85;;;46.83;;
41261;SDS011;29629;52.532;13.352;2022-12-08T02:01:20;79.18;;;48.28;;
41261;SDS011;29629;52.532;13.352;2022-12-08T02:03:49;80.13;;;48.92;;
41261;SDS011;29629;52.532;13.352;2022-12-08T02:06:19;80.50;;;47.97;;
41261;SDS011;29629;52.532;13.352;2022-12-08T02:08:48;80.15;;;48.33;;
41261;SDS011;29629;52.532;13.352;2022-12-08T02:11:16;79.22;;;48.35;;
41261;SDS011;29629;52.532;13.352;2022-12-08T02:13:43;83.95;;;49.85;;
41261;SDS011;29629;52.532;13.352;2022-12-08T02:16:15;91.90;;;51.60;;
41261;SDS011;29629;52.532;13.352;2022-12-08T02:18:55;77.00;;;47.05;;
41261;SDS011;29629;52.532;13.352;2022-12-08T02:21:28;71.63;;;45.67;;
41261;SDS011;29629;52.532;13.352;2022-12-08T02:24:04;77.55;;;47.45;;
41261;SDS011;29629;52.532;13.352;2022-12-08T02:29:50;75.63;;;47.38;;
41261;SDS011;29629;52.532;13.352;2022-12-08T02:35:33;77.93;;;47.50;;
41261;SDS011;29629;52.532;13.352;2022-12-08T02:38:05;78.53;;;47.55;;
41261;SDS011;29629;52.532;13.352;2022-12-08T02:40:38;84.18;;;50.28;;
41261;SDS011;29629;52.532;13.352;2022-12-08T02:43:13;79.05;;;48.72;;
41261;SDS011;29629;52.532;13.352;2022-12-08T02:45:47;84.07;;;49.55;;
41261;SDS011;29629;52.532;13.352;2022-12-08T02:48:17;86.25;;;50.15;;
41261;SDS011;29629;52.532;13.352;2022-12-08T02:50:46;88.20;;;51.60;;
41261;SDS011;29629;52.532;13.352;2022-12-08T02:53:12;86.82;;;51.33;;
41261;SDS011;29629;52.532;13.352;2022-12-08T02:55:42;85.78;;;50.60;;
41261;SDS011;29629;52.532;13.352;2022-12-08T02:58:28;80.55;;;49.33;;
41261;SDS011;29629;52.532;13.352;2022-12-08T03:01:13;88.03;;;51.53;;
41261;SDS011;29629;52.532;13.352;2022-12-08T03:04:04;88.63;;;52.45;;
41261;SDS011;29629;52.532;13.352;2022-12-08T03:06:38;86.38;;;51.05;;
41261;SDS011;29629;52.532;13.352;2022-12-08T03:09:13;85.43;;;51.30;;
41261;SDS011;29629;52.532;13.352;2022-12-08T03:11:46;87.45;;;49.13;;
41261;SDS011;29629;52.532;13.352;2022-12-08T03:14:18;84.38;;;50.22;;
41261;SDS011;29629;52.532;13.352;2022-12-08T03:16:48;84.30;;;50.33;;
41261;SDS011;29629;52.532;13.352;2022-12-08T03:19:21;86.00;;;50.85;;
41261;SDS011;29629;52.532;13.352;2022-12-08T03:21:53;86.05;;;50.42;;
41261;SDS011;29629;52.532;13.352;2022-12-08T03:26:54;80.55;;;48.90;;
41261;SDS011;29629;52.532;13.352;2022-12-08T03:29:25;86.55;;;50.42;;
41261;SDS011;29629;52.532;13.352;2022-12-08T03:31:53;83.75;;;51.22;;
41261;SDS011;29629;52.532;13.352;2022-12-08T03:34:25;87.75;;;51.28;;
41261;SDS011;29629;52.532;13.352;2022-12-08T03:36:56;87.82;;;52.13;;
41261;SDS011;29629;52.532;13.352;2022-12-08T03:39:26;87.40;;;52.35;;
41261;SDS011;29629;52.532;13.352;2022-12-08T03:41:53;88.07;;;51.55;;
41261;SDS011;29629;52.532;13.352;2022-12-08T03:44:20;88.20;;;51.70;;
41261;SDS011;29629;52.532;13.352;2022-12-08T03:46:47;88.03;;;51.28;;
41261;SDS011;29629;52.532;13.352;2022-12-08T03:49:14;86.70;;;51.35;;
41261;SDS011;29629;52.532;13.352;2022-12-08T03:51:40;90.78;;;52.72;;
41261;SDS011;29629;52.532;13.352;2022-12-08T03:54:09;95.60;;;54.90;;
41261;SDS011;29629;52.532;13.352;2022-12-08T03:56:36;93.50;;;56.05;;
41261;SDS011;29629;52.532;13.352;2022-12-08T03:59:04;97.10;;;58.63;;
41261;SDS011;29629;52.532;13.352;2022-12-08T04:01:32;95.30;;;56.15;;
41261;SDS011;29629;52.532;13.352;2022-12-08T04:03:59;97.82;;;60.22;;
41261;SDS011;29629;52.532;13.352;2022-12-08T04:06:26;92.32;;;58.40;;
41261;SDS011;29629;52.532;13.352;2022-12-08T04:08:53;93.97;;;57.95;;
41261;SDS011;29629;52.532;13.352;2022-12-08T04:11:22;89.00;;;55.38;;
41261;SDS011;29629;52.532;13.352;2022-12-08T04:13:49;91.97;;;56.72;;
41261;SDS011;29629;52.532;13.352;2022-12-08T04:16:17;88.85;;;53.17;;
41261;SDS011;29629;52.532;13.352;2022-12-08T04:18:45;92.28;;;53.05;;
41261;SDS011;29629;52.532;13.352;2022-12-08T04:21:12;92.75;;;54.40;;
41261;SDS011;29629;52.532;13.352;2022-12-08T04:23:40;93.60;;;54.78;;
41261;SDS011;29629;52.532;13.352;2022-12-08T04:26:07;90.65;;;54.53;;
41261;SDS011;29629;52.532;13.352;2022-12-08T04:28:36;95.05;;;55.25;;
41261;SDS011;29629;52.532;13.352;2022-12-08T04:31:03;95.22;;;54.97;;
41261;SDS011;29629;52.532;13.352;2022-12-08T04:33:31;94.43;;;55.83;;
41261;SDS011;29629;52.532;13.352;2022-12-08T04:35:59;94.03;;;56.50;;
41261;SDS011;29629;52.532;13.352;2022-12-08T04:38:26;88.65;;;52.05;;
41261;SDS011;29629;52.532;13.352;2022-12-08T04:40:53;92.30;;;53.45;;
41261;SDS011;29629;52.532;13.352;2022-12-08T04:43:20;90.70;;;53.83;;
41261;SDS011;29629;52.532;13.352;2022-12-08T04:45:48;87.65;;;51.78;;
41261;SDS011;29629;52.532;13.352;2022-12-08T04:48:15;89.15;;;53.08;;
41261;SDS011;29629;52.532;13.352;2022-12-08T04:50:43;95.75;;;52.17;;
41261;SDS011;29629;52.532;13.352;2022-12-08T04:53:11;86.68;;;50.65;;
41261;SDS011;29629;52.532;13.352;2022-12-08T04:55:40;83.65;;;49.38;;
41261;SDS011;29629;52.532;13.352;2022-12-08T04:58:10;87.13;;;51.03;;
41261;SDS011;29629;52.532;13.352;2022-12-08T05:00:38;81.80;;;48.55;;
41261;SDS011;29629;52.532;13.352;2022-12-08T05:03:07;84.82;;;51.47;;
41261;SDS011;29629;52.532;13.352;2022-12-08T05:05:34;86.55;;;52.22;;
41261;SDS011;29629;52.532;13.352;2022-12-08T05:08:01;97.47;;;55.88;;
41261;SDS011;29629;52.532;13.352;2022-12-08T05:10:29;86.32;;;51.35;;
41261;SDS011;29629;52.532;13.352;2022-12-08T05:12:56;88.53;;;52.50;;
41261;SDS011;29629;52.532;13.352;2022-12-08T05:15:23;94.22;;;54.25;;
41261;SDS011;29629;52.532;13.352;2022-12-08T05:17:50;95.35;;;52.80;;
41261;SDS011;29629;52.532;13.352;2022-12-08T05:20:19;101.72;;;56.95;;
41261;SDS011;29629;52.532;13.352;2022-12-08T05:22:46;86.43;;;51.28;;
41261;SDS011;29629;52.532;13.352;2022-12-08T05:25:13;88.45;;;52.95;;
41261;SDS011;29629;52.532;13.352;2022-12-08T05:27:40;85.05;;;50.70;;
41261;SDS011;29629;52.532;13.352;2022-12-08T05:30:07;89.03;;;51.58;;
41261;SDS011;29629;52.532;13.352;2022-12-08T05:32:34;89.15;;;51.90;;
41261;SDS011;29629;52.532;13.352;2022-12-08T05:35:01;95.85;;;55.28;;
41261;SDS011;29629;52.532;13.352;2022-12-08T05:37:29;98.47;;;56.78;;
41261;SDS011;29629;52.532;13.352;2022-12-08T05:39:56;102.50;;;59.30;;
41261;SDS011;29629;52.532;13.352;2022-12-08T05:42:23;100.13;;;57.40;;
41261;SDS011;29629;52.532;13.352;2022-12-08T05:44:50;104.57;;;58.67;;
41261;SDS011;29629;52.532;13.352;2022-12-08T05:47:17;96.53;;;56.92;;
41261;SDS011;29629;52.532;13.352;2022-12-08T05:49:44;96.25;;;57.97;;
41261;SDS011;29629;52.532;13.352;2022-12-08T05:52:11;100.97;;;58.55;;
41261;SDS011;29629;52.532;13.352;2022-12-08T05:54:39;96.93;;;57.05;;
41261;SDS011;29629;52.532;13.352;2022-12-08T05:57:06;109.35;;;60.47;;
41261;SDS011;29629;52.532;13.352;2022-12-08T05:59:33;100.60;;;57.33;;
41261;SDS011;29629;52.532;13.352;2022-12-08T06:02:01;101.70;;;59.10;;
41261;SDS011;29629;52.532;13.352;2022-12-08T06:04:28;96.85;;;57.97;;
41261;SDS011;29629;52.532;13.352;2022-12-08T06:06:55;97.78;;;56.50;;
41261;SDS011;29629;52.532;13.352;2022-12-08T06:09:22;99.25;;;58.70;;
41261;SDS011;29629;52.532;13.352;2022-12-08T06:11:50;102.50;;;58.20;;
41261;SDS011;29629;52.532;13.352;2022-12-08T06:14:17;95.55;;;57.28;;
41261;SDS011;29629;52.532;13.352;2022-12-08T06:16:44;89.68;;;54.22;;
41261;SDS011;29629;52.532;13.352;2022-12-08T06:19:11;96.43;;;58.38;;
41261;SDS011;29629;52.532;13.352;2022-12-08T06:21:38;95.40;;;57.35;;
41261;SDS011;29629;52.532;13.352;2022-12-08T06:24:05;92.68;;;56.17;;
41261;SDS011;29629;52.532;13.352;2022-12-08T06:26:32;93.93;;;55.92;;
41261;SDS011;29629;52.532;13.352;2022-12-08T06:29:01;90.80;;;54.70;;
41261;SDS011;29629;52.532;13.352;2022-12-08T06:31:29;91.63;;;54.28;;
41261;SDS011;29629;52.532;13.352;2022-12-08T06:33:56;87.53;;;53.40;;
41261;SDS011;29629;52.532;13.352;2022-12-08T06:36:24;92.97;;;53.70;;
41261;SDS011;29629;52.532;13.352;2022-12-08T06:38:52;92.93;;;54.63;;
41261;SDS011;29629;52.532;13.352;2022-12-08T06:41:19;95.25;;;56.08;;
41261;SDS011;29629;52.532;13.352;2022-12-08T06:43:46;101.00;;;58.55;;
41261;SDS011;29629;52.532;13.352;2022-12-08T06:46:16;86.60;;;54.65;;
41261;SDS011;29629;52.532;13.352;2022-12-08T06:48:44;96.05;;;57.45;;
41261;SDS011;29629;52.532;13.352;2022-12-08T06:51:11;102.47;;;60.22;;
41261;SDS011;29629;52.532;13.352;2022-12-08T06:53:40;104.43;;;59.80;;
41261;SDS011;29629;52.532;13.352;2022-12-08T06:56:08;99.47;;;58.80;;
41261;SDS011;29629;52.532;13.352;2022-12-08T06:58:35;89.88;;;54.25;;
41261;SDS011;29629;52.532;13.352;2022-12-08T07:01:03;99.13;;;57.90;;
41261;SDS011;29629;52.532;13.352;2022-12-08T07:03:32;95.88;;;55.97;;
41261;SDS011;29629;52.532;13.352;2022-12-08T07:05:59;95.38;;;57.63;;
41261;SDS011;29629;52.532;13.352;2022-12-08T07:08:26;92.70;;;57.33;;
41261;SDS011;29629;52.532;13.352;2022-12-08T07:10:53;97.90;;;58.58;;
41261;SDS011;29629;52.532;13.352;2022-12-08T07:13:20;94.35;;;55.40;;
41261;SDS011;29629;52.532;13.352;2022-12-08T07:15:47;103.00;;;58.70;;
41261;SDS011;29629;52.532;13.352;2022-12-08T07:18:14;96.75;;;56.60;;
41261;SDS011;29629;52.532;13.352;2022-12-08T07:20:42;94.82;;;55.88;;
41261;SDS011;29629;52.532;13.352;2022-12-08T07:23:09;100.47;;;58.65;;
41261;SDS011;29629;52.532;13.352;2022-12-08T07:25:36;101.78;;;57.88;;
41261;SDS011;29629;52.532;13.352;2022-12-08T07:28:06;104.15;;;58.88;;
41261;SDS011;29629;52.532;13.352;2022-12-08T07:30:34;103.57;;;61.67;;
41261;SDS011;29629;52.532;13.352;2022-12-08T07:33:01;99.85;;;57.47;;
41261;SDS011;29629;52.532;13.352;2022-12-08T07:35:29;92.82;;;55.42;;
41261;SDS011;29629;52.532;13.352;2022-12-08T07:37:57;101.15;;;59.17;;
41261;SDS011;29629;52.532;13.352;2022-12-08T07:40:24;98.60;;;57.08;;
41261;SDS011;29629;52.532;13.352;2022-12-08T07:42:51;104.97;;;56.83;;
41261;SDS011;29629;52.532;13.352;2022-12-08T07:45:18;96.18;;;55.88;;
41261;SDS011;29629;52.532;13.352;2022-12-08T07:47:48;85.45;;;53.45;;
41261;SDS011;29629;52.532;13.352;2022-12-08T07:50:15;104.90;;;59.22;;
41261;SDS011;29629;52.532;13.352;2022-12-08T07:52:42;93.53;;;54.38;;
41261;SDS011;29629;52.532;13.352;2022-12-08T07:55:10;89.35;;;53.97;;
41261;SDS011;29629;52.532;13.352;2022-12-08T07:57:37;98.68;;;56.72;;
41261;SDS011;29629;52.532;13.352;2022-12-08T08:00:04;115.00;;;57.67;;
41261;SDS011;29629;52.532;13.352;2022-12-08T08:02:32;88.72;;;54.22;;
41261;SDS011;29629;52.532;13.352;2022-12-08T08:04:59;93.70;;;54.08;;
41261;SDS011;29629;52.532;13.352;2022-12-08T08:07:26;105.43;;;58.60;;
41261;SDS011;29629;52.532;13.352;2022-12-08T08:09:53;98.82;;;57.65;;
41261;SDS011;29629;52.532;13.352;2022-12-08T08:12:21;91.63;;;54.95;;
41261;SDS011;29629;52.532;13.352;2022-12-08T08:14:48;94.57;;;55.80;;
41261;SDS011;29629;52.532;13.352;2022-12-08T08:17:15;97.05;;;57.60;;
41261;SDS011;29629;52.532;13.352;2022-12-08T08:19:41;100.65;;;57.50;;
41261;SDS011;29629;52.532;13.352;2022-12-08T08:22:08;91.18;;;54.72;;
41261;SDS011;29629;52.532;13.352;2022-12-08T08:24:35;99.20;;;58.42;;
41261;SDS011;29629;52.532;13.352;2022-12-08T08:27:02;105.90;;;57.72;;
41261;SDS011;29629;52.532;13.352;2022-12-08T08:29:30;83.68;;;52.15;;
41261;SDS011;29629;52.532;13.352;2022-12-08T08:31:57;79.82;;;51.58;;
41261;SDS011;29629;52.532;13.352;2022-12-08T08:34:24;91.65;;;55.50;;
41261;SDS011;29629;52.532;13.352;2022-12-08T08:36:51;94.68;;;56.72;;
41261;SDS011;29629;52.532;13.352;2022-12-08T08:39:18;143.27;;;71.95;;
41261;SDS011;29629;52.532;13.352;2022-12-08T08:41:46;97.88;;;56.55;;
41261;SDS011;29629;52.532;13.352;2022-12-08T08:44:13;86.55;;;52.55;;
41261;SDS011;29629;52.532;13.352;2022-12-08T08:46:41;97.00;;;56.67;;
41261;SDS011;29629;52.532;13.352;2022-12-08T08:49:09;91.60;;;53.65;;
41261;SDS011;29629;52.532;13.352;2022-12-08T08:51:36;96.28;;;55.92;;
41261;SDS011;29629;52.532;13.352;2022-12-08T08:54:03;103.85;;;59.03;;
41261;SDS011;29629;52.532;13.352;2022-12-08T08:56:30;95.30;;;57.45;;
41261;SDS011;29629;52.532;13.352;2022-12-08T08:59:00;99.22;;;60.25;;
41261;SDS011;29629;52.532;13.352;2022-12-08T09:01:27;99.03;;;59.65;;
41261;SDS011;29629;52.532;13.352;2022-12-08T09:03:56;96.00;;;56.17;;
41261;SDS011;29629;52.532;13.352;2022-12-08T09:06:23;100.22;;;57.28;;
41261;SDS011;29629;52.532;13.352;2022-12-08T09:08:52;83.10;;;53.17;;
41261;SDS011;29629;52.532;13.352;2022-12-08T09:11:19;99.03;;;57.75;;
41261;SDS011;29629;52.532;13.352;2022-12-08T09:13:47;94.63;;;57.38;;
41261;SDS011;29629;52.532;13.352;2022-12-08T09:16:14;96.00;;;59.22;;
41261;SDS011;29629;52.532;13.352;2022-12-08T09:18:42;102.85;;;54.70;;
41261;SDS011;29629;52.532;13.352;2022-12-08T09:21:11;91.85;;;57.05;;
41261;SDS011;29629;52.532;13.352;2022-12-08T09:23:40;99.88;;;59.42;;
41261;SDS011;29629;52.532;13.352;2022-12-08T09:26:07;88.93;;;55.33;;
41261;SDS011;29629;52.532;13.352;2022-12-08T09:28:34;93.30;;;57.40;;
41261;SDS011;29629;52.532;13.352;2022-12-08T09:31:02;90.45;;;56.30;;
41261;SDS011;29629;52.532;13.352;2022-12-08T09:33:29;89.95;;;55.60;;
41261;SDS011;29629;52.532;13.352;2022-12-08T09:36:00;86.65;;;54.22;;
41261;SDS011;29629;52.532;13.352;2022-12-08T09:38:29;87.32;;;53.92;;
41261;SDS011;29629;52.532;13.352;2022-12-08T09:40:56;90.22;;;57.17;;
41261;SDS011;29629;52.532;13.352;2022-12-08T09:43:31;93.95;;;57.25;;
41261;SDS011;29629;52.532;13.352;2022-12-08T09:46:09;106.75;;;58.30;;
41261;SDS011;29629;52.532;13.352;2022-12-08T09:48:39;92.88;;;55.83;;
41261;SDS011;29629;52.532;13.352;2022-12-08T09:51:10;93.32;;;56.83;;
41261;SDS011;29629;52.532;13.352;2022-12-08T09:53:43;82.07;;;52.25;;
41261;SDS011;29629;52.532;13.352;2022-12-08T09:56:15;92.28;;;56.50;;
41261;SDS011;29629;52.532;13.352;2022-12-08T09:58:45;89.88;;;54.95;;
41261;SDS011;29629;52.532;13.352;2022-12-08T10:01:17;92.20;;;59.55;;
41261;SDS011;29629;52.532;13.352;2022-12-08T10:03:45;92.22;;;54.72;;
41261;SDS011;29629;52.532;13.352;2022-12-08T10:06:14;91.28;;;55.92;;
41261;SDS011;29629;52.532;13.352;2022-12-08T10:08:50;86.28;;;54.47;;
41261;SDS011;29629;52.532;13.352;2022-12-08T10:11:28;92.20;;;56.10;;
41261;SDS011;29629;52.532;13.352;2022-12-08T10:14:03;91.93;;;56.10;;
41261;SDS011;29629;52.532;13.352;2022-12-08T10:16:39;89.93;;;56.35;;
41261;SDS011;29629;52.532;13.352;2022-12-08T10:19:13;90.57;;;57.25;;
41261;SDS011;29629;52.532;13.352;2022-12-08T10:21:45;101.28;;;59.90;;
41261;SDS011;29629;52.532;13.352;2022-12-08T10:24:18;98.68;;;58.60;;
41261;SDS011;29629;52.532;13.352;2022-12-08T10:26:51;98.63;;;58.15;;
41261;SDS011;29629;52.532;13.352;2022-12-08T10:29:19;102.18;;;59.45;;
41261;SDS011;29629;52.532;13.352;2022-12-08T10:31:46;113.03;;;64.45;;
41261;SDS011;29629;52.532;13.352;2022-12-08T10:34:13;109.55;;;65.82;;
41261;SDS011;29629;52.532;13.352;2022-12-08T10:36:46;106.30;;;65.68;;
41261;SDS011;29629;52.532;13.352;2022-12-08T10:42:10;112.65;;;66.55;;
41261;SDS011;29629;52.532;13.352;2022-12-08T10:47:28;105.82;;;64.05;;
41261;SDS011;29629;52.532;13.352;2022-12-08T10:50:08;112.25;;;67.28;;
41261;SDS011;29629;52.532;13.352;2022-12-08T10:52:42;107.85;;;66.80;;
41261;SDS011;29629;52.532;13.352;2022-12-08T10:55:15;107.72;;;67.88;;
41261;SDS011;29629;52.532;13.352;2022-12-08T10:57:44;117.65;;;67.28;;
41261;SDS011;29629;52.532;13.352;2022-12-08T11:00:14;126.68;;;73.38;;
41261;SDS011;29629;52.532;13.352;2022-12-08T11:02:50;100.78;;;64.07;;
41261;SDS011;29629;52.532;13.352;2022-12-08T11:05:19;114.53;;;69.68;;
41261;SDS011;29629;52.532;13.352;2022-12-08T11:07:49;113.45;;;69.85;;
41261;SDS011;29629;52.532;13.352;2022-12-08T11:10:20;122.75;;;72.75;;
41261;SDS011;29629;52.532;13.352;2022-12-08T11:12:53;107.07;;;69.43;;
41261;SDS011;29629;52.532;13.352;2022-12-08T11:15:31;109.80;;;68.43;;
41261;SDS011;29629;52.532;13.352;2022-12-08T11:18:05;110.00;;;68.50;;
41261;SDS011;29629;52.532;13.352;2022-12-08T11:20:38;105.85;;;66.53;;
41261;SDS011;29629;52.532;13.352;2022-12-08T11:23:17;114.45;;;67.53;;
41261;SDS011;29629;52.532;13.352;2022-12-08T11:25:47;104.45;;;66.85;;
41261;SDS011;29629;52.532;13.352;2022-12-08T11:28:17;107.38;;;66.82;;
41261;SDS011;29629;52.532;13.352;2022-12-08T11:30:51;103.45;;;64.30;;
41261;SDS011;29629;52.532;13.352;2022-12-08T11:33:23;96.43;;;63.38;;
41261;SDS011;29629;52.532;13.352;2022-12-08T11:35:53;100.38;;;65.75;;
41261;SDS011;29629;52.532;13.352;2022-12-08T11:38:26;104.07;;;65.72;;
41261;SDS011;29629;52.532;13.352;2022-12-08T11:40:56;100.18;;;64.80;;
41261;SDS011;29629;52.532;13.352;2022-12-08T11:43:28;100.93;;;65.28;;
41261;SDS011;29629;52.532;13.352;2022-12-08T11:46:08;102.03;;;65.55;;
41261;SDS011;29629;52.532;13.352;2022-12-08T11:48:39;101.32;;;65.78;;
41261;SDS011;29629;52.532;13.352;2022-12-08T11:51:12;103.93;;;66.25;;
41261;SDS011;29629;52.532;13.352;2022-12-08T11:53:46;104.78;;;65.90;;
41261;SDS011;29629;52.532;13.352;2022-12-08T11:56:20;96.88;;;61.80;;
41261;SDS011;29629;52.532;13.352;2022-12-08T11:58:54;105.57;;;65.95;;
41261;SDS011;29629;52.532;13.352;2022-12-08T12:01:23;106.82;;;65.85;;
41261;SDS011;29629;52.532;13.352;2022-12-08T12:03:53;101.93;;;64.93;;
41261;SDS011;29629;52.532;13.352;2022-12-08T12:09:32;97.60;;;62.83;;
41261;SDS011;29629;52.532;13.352;2022-12-08T12:12:10;101.07;;;64.75;;
41261;SDS011;29629;52.532;13.352;2022-12-08T12:15:28;103.75;;;61.55;;
41261;SDS011;29629;52.532;13.352;2022-12-08T12:18:12;97.20;;;58.80;;
41261;SDS011;29629;52.532;13.352;2022-12-08T12:20:48;101.25;;;60.88;;
41261;SDS011;29629;52.532;13.352;2022-12-08T12:23:18;104.63;;;61.10;;
41261;SDS011;29629;52.532;13.352;2022-12-08T12:25:49;109.55;;;62.28;;
41261;SDS011;29629;52.532;13.352;2022-12-08T12:28:22;103.38;;;60.08;;
41261;SDS011;29629;52.532;13.352;2022-12-08T12:30:53;109.78;;;64.70;;
41261;SDS011;29629;52.532;13.352;2022-12-08T12:33:23;110.38;;;63.70;;
41261;SDS011;29629;52.532;13.352;2022-12-08T12:35:50;104.40;;;61.08;;
41261;SDS011;29629;52.532;13.352;2022-12-08T12:38:23;105.72;;;60.45;;
41261;SDS011;29629;52.532;13.352;2022-12-08T12:41:09;101.03;;;61.88;;
41261;SDS011;29629;52.532;13.352;2022-12-08T12:43:39;105.53;;;61.67;;
41261;SDS011;29629;52.532;13.352;2022-12-08T12:46:53;100.65;;;61.03;;
41261;SDS011;29629;52.532;13.352;2022-12-08T12:55:21;109.47;;;63.78;;
41261;SDS011;29629;52.532;13.352;2022-12-08T13:04:13;103.88;;;59.90;;
41261;SDS011;29629;52.532;13.352;2022-12-08T13:06:43;105.57;;;60.30;;
41261;SDS011;29629;52.532;13.352;2022-12-08T13:09:20;102.00;;;62.42;;
41261;SDS011;29629;52.532;13.352;2022-12-08T13:11:49;107.30;;;61.20;;
41261;SDS011;29629;52.532;13.352;2022-12-08T13:14:27;96.65;;;57.15;;
41261;SDS011;29629;52.532;13.352;2022-12-08T13:16:56;97.65;;;57.05;;
41261;SDS011;29629;52.532;13.352;2022-12-08T13:19:28;94.97;;;55.80;;
41261;SDS011;29629;52.532;13.352;2022-12-08T13:21:57;99.43;;;56.13;;
41261;SDS011;29629;52.532;13.352;2022-12-08T13:24:29;97.80;;;55.90;;
41261;SDS011;29629;52.532;13.352;2022-12-08T13:33:14;99.95;;;58.83;;
41261;SDS011;29629;52.532;13.352;2022-12-08T13:35:44;98.10;;;58.47;;
41261;SDS011;29629;52.532;13.352;2022-12-08T13:38:16;96.03;;;58.70;;
41261;SDS011;29629;52.532;13.352;2022-12-08T13:40:47;103.95;;;63.30;;
41261;SDS011;29629;52.532;13.352;2022-12-08T13:43:16;105.50;;;60.40;;
41261;SDS011;29629;52.532;13.352;2022-12-08T13:45:51;96.75;;;58.20;;
41261;SDS011;29629;52.532;13.352;2022-12-08T13:48:23;95.93;;;58.72;;
41261;SDS011;29629;52.532;13.352;2022-12-08T13:50:55;94.32;;;66.88;;
41261;SDS011;29629;52.532;13.352;2022-12-08T13:53:28;96.40;;;56.38;;
41261;SDS011;29629;52.532;13.352;2022-12-08T13:56:01;99.43;;;58.00;;
41261;SDS011;29629;52.532;13.352;2022-12-08T13:58:30;102.82;;;60.00;;
41261;SDS011;29629;52.532;13.352;2022-12-08T14:01:04;103.40;;;61.42;;
41261;SDS011;29629;52.532;13.352;2022-12-08T14:03:37;107.57;;;63.60;;
41261;SDS011;29629;52.532;13.352;2022-12-08T14:06:12;105.32;;;62.53;;
41261;SDS011;29629;52.532;13.352;2022-12-08T14:08:41;101.00;;;62.75;;
41261;SDS011;29629;52.532;13.352;2022-12-08T14:11:13;104.93;;;63.83;;
41261;SDS011;29629;52.532;13.352;2022-12-08T14:13:57;105.70;;;61.30;;
41261;SDS011;29629;52.532;13.352;2022-12-08T14:16:28;98.45;;;60.50;;
41261;SDS011;29629;52.532;13.352;2022-12-08T14:19:03;101.65;;;61.15;;
41261;SDS011;29629;52.532;13.352;2022-12-08T14:21:31;99.13;;;61.92;;
41261;SDS011;29629;52.532;13.352;2022-12-08T14:24:00;108.35;;;63.83;;
41261;SDS011;29629;52.532;13.352;2022-12-08T14:26:30;98.97;;;59.85;;
41261;SDS011;29629;52.532;13.352;2022-12-08T14:29:00;99.78;;;58.78;;
41261;SDS011;29629;52.532;13.352;2022-12-08T14:31:28;96.35;;;57.65;;
41261;SDS011;29629;52.532;13.352;2022-12-08T14:33:55;102.50;;;56.53;;
41261;SDS011;29629;52.532;13.352;2022-12-08T14:36:22;96.30;;;58.17;;
41261;SDS011;29629;52.532;13.352;2022-12-08T14:38:50;98.97;;;58.22;;
41261;SDS011;29629;52.532;13.352;2022-12-08T14:41:24;97.50;;;58.63;;
41261;SDS011;29629;52.532;13.352;2022-12-08T14:44:00;98.30;;;58.78;;
41261;SDS011;29629;52.532;13.352;2022-12-08T14:46:29;94.82;;;56.78;;
41261;SDS011;29629;52.532;13.352;2022-12-08T14:48:56;95.32;;;56.60;;
41261;SDS011;29629;52.532;13.352;2022-12-08T14:51:25;96.45;;;57.30;;
41261;SDS011;29629;52.532;13.352;2022-12-08T14:53:56;102.72;;;59.17;;
41261;SDS011;29629;52.532;13.352;2022-12-08T14:56:25;86.30;;;55.15;;
41261;SDS011;29629;52.532;13.352;2022-12-08T14:59:08;91.38;;;58.05;;
41261;SDS011;29629;52.532;13.352;2022-12-08T15:01:40;100.65;;;58.20;;
41261;SDS011;29629;52.532;13.352;2022-12-08T15:04:12;100.85;;;60.00;;